Darstellungsparameter: Aktuell verwendete Einstellungen:
Skalierung der Graphiken ... ?
xyx+y,   Skalierungsfaktor:      Skalierung: Modus: x, Faktor: 1
Darstellungszeitraum ... ?
Vom - - bis: - -   Zeitraum: 12.06.2018 - 11.06.2021
Min/Max/Avg-Anzeige ... ?
Zeige MMA aktuell
Zeige MMA Monat
Zeige MMA alles
Zeige --A aktuell
Zeige --A Monat
Zeige --A alles
Keine MMA-Anzeige
MMA:
Keine MMA-Graphiken
MMA-Basis: 12.06.2018 - 11.06.2021
Quicknavigation für Darstellung... ?
Tage:      1T, 2T, 3T, 5T -1T -2T -3T -5T +1T +2T +3T +5T
Wochen: 1W, 2W, 3W -1W -2W -3W +1W +2W +3W
Monate: 1M, 3M, 6M -1M -3M -6M +1M +3M +6M
Jahre:    1J, 3J, 5J, 10J -1J -3J -5J -10J +1J +3J +5J +10J
Nutze für die Darstellung ... ?
Originaldaten oder ...
Mittelwerte Minima Maxima auf...
Stundenbasis Tagesbasis Wochenbasis
Monatsbasis Jahresbasis      Datenbasis: Mittelwerte auf Tagesbasis
Darstellen als:
Statistik (Auto) Statistik J:M      Darstellung:
Zur Graphik,    zurück zur Übersicht aller Sensoren.
 
Tabellarische Datenbersicht: ?
 
Sensor: Nr:Datum:Temp:Feuchte:Taupunkt:
Aussen-T/F 1 12-06-2018 00:00:00 16.41979 C 90.3194 % 14.83 C
2 13-06-2018 00:00:00 14.8941 C 79.6285 % 11.41 C
3 14-06-2018 00:00:00 14.94132 C 80.6806 % 11.65 C
4 15-06-2018 00:00:00 17.84236 C 88.0243 % 15.83 C
5 16-06-2018 00:00:00 19.99306 C 78.6493 % 16.17 C
6 17-06-2018 00:00:00 17.94167 C 75.1979 % 13.49 C
7 18-06-2018 00:00:00 17.81667 C 77.9757 % 13.93 C
8 19-06-2018 00:00:00 18.89201 C 84.5799 % 16.24 C
9 20-06-2018 00:00:00 23.07639 C 72.0069 % 17.75 C
10 21-06-2018 00:00:00 17.92639 C 69.4514 % 12.26 C
11 22-06-2018 00:00:00 13.74097 C 68.4549 % 8.04 C
12 23-06-2018 00:00:00 13.76424 C 76.4514 % 9.7 C
13 24-06-2018 00:00:00 15.88264 C 72.8299 % 11.02 C
14 25-06-2018 00:00:00 17.09201 C 78.1806 % 13.26 C
15 26-06-2018 00:00:00 17.67396 C 74.6806 % 13.13 C
16 27-06-2018 00:00:00 19.15694 C 67.6979 % 13.05 C
17 28-06-2018 00:00:00 20.71076 C 61.1806 % 12.97 C
18 29-06-2018 00:00:00 24.11424 C 56.0451 % 14.8 C
19 30-06-2018 00:00:00 22.06215 C 56.9201 % 13.13 C
20 01-07-2018 00:00:00 20.86597 C 42.7396 % 7.74 C
21 02-07-2018 00:00:00 20.44792 C 45.9861 % 8.44 C
22 03-07-2018 00:00:00 20.73299 C 50.1319 % 9.98 C
23 04-07-2018 00:00:00 18.84167 C 80.7778 % 15.47 C
24 05-07-2018 00:00:00 19.41111 C 88.5799 % 17.48 C
25 06-07-2018 00:00:00 20.03056 C 75.7014 % 15.61 C
Sensor: Nr:Datum:Temp:Feuchte:Taupunkt:
Aussen-T/F 26 07-07-2018 00:00:00 20.66701 C 67.2326 % 14.38 C
27 08-07-2018 00:00:00 19.71181 C 58.3160 % 11.3 C
28 09-07-2018 00:00:00 19.32361 C 67.3299 % 13.12 C
29 10-07-2018 00:00:00 17.13715 C 73.0729 % 12.28 C
30 11-07-2018 00:00:00 16.10729 C 82.2396 % 13.08 C
31 12-07-2018 00:00:00 19.59688 C 80.3924 % 16.13 C
32 13-07-2018 00:00:00 19.71166 C 77.4240 % 15.65 C
33 14-07-2018 00:00:00 21.51493 C 67.9236 % 15.34 C
34 15-07-2018 00:00:00 21.63021 C 64.0521 % 14.54 C
35 16-07-2018 00:00:00 22.30868 C 61.5347 % 14.56 C
36 17-07-2018 00:00:00 21.01771 C 65.8507 % 14.39 C
37 18-07-2018 00:00:00 20.29479 C 65.8750 % 13.71 C
38 19-07-2018 00:00:00 20.92431 C 60.5069 % 13 C
39 20-07-2018 00:00:00 21.5559 C 61.6319 % 13.88 C
40 21-07-2018 00:00:00 20.6125 C 77.3958 % 16.52 C
41 22-07-2018 00:00:00 21.61458 C 70.0486 % 15.92 C
42 23-07-2018 00:00:00 22.37917 C 67.0868 % 15.97 C
43 24-07-2018 00:00:00 23.70278 C 63.7465 % 16.43 C
44 25-07-2018 00:00:00 25.50069 C 57.3160 % 16.44 C
45 26-07-2018 00:00:00 27.18785 C 54.2326 % 17.14 C
46 27-07-2018 00:00:00 26.11146 C 50.4861 % 15.03 C
47 28-07-2018 00:00:00 21.97743 C 76.3924 % 17.63 C
48 29-07-2018 00:00:00 23.50521 C 66.0451 % 16.8 C
49 30-07-2018 00:00:00 24.29931 C 64.4410 % 17.16 C
50 31-07-2018 00:00:00 25.46875 C 61.9722 % 17.65 C
Sensor: Nr:Datum:Temp:Feuchte:Taupunkt:
Aussen-T/F 51 01-08-2018 00:00:00 20.74271 C 87.4931 % 18.59 C
52 02-08-2018 00:00:00 23.73056 C 74.2257 % 18.87 C
53 03-08-2018 00:00:00 26.4684 C 61.0278 % 18.34 C
54 04-08-2018 00:00:00 26.38714 C 57.9821 % 17.45 C
55 05-08-2018 00:00:00 24.70486 C 59.6424 % 16.32 C
56 06-08-2018 00:00:00 24.16944 C 57.6563 % 15.29 C
57 07-08-2018 00:00:00 26.73646 C 55.5104 % 17.09 C
58 08-08-2018 00:00:00 25.29618 C 61.3021 % 17.31 C
59 09-08-2018 00:00:00 20.57778 C 82.7639 % 17.54 C
60 10-08-2018 00:00:00 18.35486 C 65.3924 % 11.76 C
61 11-08-2018 00:00:00 18.37083 C 59.8611 % 10.44 C
62 12-08-2018 00:00:00 18.15451 C 63.0729 % 11.02 C
63 13-08-2018 00:00:00 17.68854 C 81.8924 % 14.56 C
64 14-08-2018 00:00:00 18.53958 C 84.6563 % 15.91 C
65 15-08-2018 00:00:00 19.375 C 79.2465 % 15.69 C
66 16-08-2018 00:00:00 20.74444 C 71.2743 % 15.36 C
67 17-08-2018 00:00:00 19.75903 C 76.6632 % 15.54 C
68 18-08-2018 00:00:00 18.88785 C 68.7326 % 13.02 C
69 19-08-2018 00:00:00 20.30521 C 67.4132 % 14.07 C
70 20-08-2018 00:00:00 20.84444 C 73.5938 % 15.95 C
71 21-08-2018 00:00:00 21.96979 C 70.6528 % 16.39 C
72 22-08-2018 00:00:00 23.24757 C 65.7500 % 16.48 C
73 23-08-2018 00:00:00 22.88681 C 69.0660 % 16.91 C
74 24-08-2018 00:00:00 19.03368 C 65.5556 % 12.44 C
75 25-08-2018 00:00:00 14.525 C 69.8438 % 9.09 C
Sensor: Nr:Datum:Temp:Feuchte:Taupunkt:
Aussen-T/F 76 26-08-2018 00:00:00 13.80556 C 67.7882 % 7.96 C
77 27-08-2018 00:00:00 18.12604 C 70.1493 % 12.6 C
78 28-08-2018 00:00:00 18.12917 C 67.6632 % 12.06 C
79 29-08-2018 00:00:00 17.15556 C 80.1528 % 13.71 C
80 30-08-2018 00:00:00 17.22778 C 75.0799 % 12.78 C
81 31-08-2018 00:00:00 15.05521 C 72.2951 % 10.11 C
82 01-09-2018 00:00:00 14.30833 C 69.0799 % 8.72 C
83 02-09-2018 00:00:00 14.27188 C 76.5347 % 10.21 C
84 03-09-2018 00:00:00 18.05417 C 80.5556 % 14.66 C
85 04-09-2018 00:00:00 20.01736 C 79.3507 % 16.33 C
86 05-09-2018 00:00:00 20.91701 C 73.3229 % 15.97 C
87 06-09-2018 00:00:00 18.07014 C 87.7049 % 16 C
88 07-09-2018 00:00:00 15.72639 C 86.9479 % 13.56 C
89 08-09-2018 00:00:00 13.53889 C 76.5139 % 9.49 C
90 09-09-2018 00:00:00 16.94236 C 70.6667 % 11.58 C
91 10-09-2018 00:00:00 17.5 C 71.7396 % 12.34 C
92 11-09-2018 00:00:00 18.85868 C 70.4028 % 13.36 C
93 12-09-2018 00:00:00 19.08646 C 71.2882 % 13.77 C
94 13-09-2018 00:00:00 16.3625 C 85.6632 % 13.96 C
95 14-09-2018 00:00:00 16.95174 C 71.3056 % 11.73 C
96 15-09-2018 00:00:00 15.14028 C 70.3368 % 9.78 C
97 16-09-2018 00:00:00 14.7184 C 71.4063 % 9.6 C
98 17-09-2018 00:00:00 16.79306 C 68.7813 % 11.03 C
99 18-09-2018 00:00:00 19.05208 C 70.2292 % 13.51 C
100 19-09-2018 00:00:00 20.67951 C 71.7535 % 15.4 C
Sensor: Nr:Datum:Temp:Feuchte:Taupunkt:
Aussen-T/F 101 20-09-2018 00:00:00 19.17153 C 72.3785 % 14.09 C
102 21-09-2018 00:00:00 15.93472 C 78.7778 % 12.26 C
103 22-09-2018 00:00:00 12.7566 C 77.2465 % 8.88 C
104 23-09-2018 00:00:00 12.33056 C 94.4167 % 11.46 C
105 24-09-2018 00:00:00 9.92396 C 85.7674 % 7.66 C
106 25-09-2018 00:00:00 8.38785 C 85.7431 % 6.14 C
107 26-09-2018 00:00:00 8.82917 C 82.7153 % 6.06 C
108 27-09-2018 00:00:00 11.32708 C 83.9236 % 8.71 C
109 28-09-2018 00:00:00 10.18526 C 91.0982 % 8.8 C
110 29-09-2018 00:00:00 8.2941 C 81.8056 % 5.37 C
111 30-09-2018 00:00:00 7.9427 C 82.6726 % 5.18 C
112 01-10-2018 00:00:00 9.71701 C 81.2778 % 6.67 C
113 02-10-2018 00:00:00 9.17604 C 87.5625 % 7.22 C
114 03-10-2018 00:00:00 12.2809 C 82.0521 % 9.31 C
115 04-10-2018 00:00:00 9.78056 C 87.1875 % 7.75 C
116 05-10-2018 00:00:00 10.63021 C 88.2743 % 8.77 C
117 06-10-2018 00:00:00 12.7691 C 89.0000 % 11 C
118 07-10-2018 00:00:00 13.00243 C 89.0833 % 11.25 C
119 08-10-2018 00:00:00 10.50347 C 88.5521 % 8.69 C
120 09-10-2018 00:00:00 11.75035 C 91.4340 % 10.4 C
121 10-10-2018 00:00:00 13.21285 C 90.3646 % 11.67 C
122 11-10-2018 00:00:00 14.21701 C 88.2674 % 12.31 C
123 12-10-2018 00:00:00 15.87882 C 86.2604 % 13.59 C
124 13-10-2018 00:00:00 15.57986 C 84.2257 % 12.93 C
125 14-10-2018 00:00:00 14.79965 C 83.0174 % 11.95 C
Sensor: Nr:Datum:Temp:Feuchte:Taupunkt:
Aussen-T/F 126 15-10-2018 00:00:00 13.825 C 84.5903 % 11.28 C
127 16-10-2018 00:00:00 12.87292 C 86.4653 % 10.67 C
128 17-10-2018 00:00:00 12.82847 C 88.3368 % 10.95 C
129 18-10-2018 00:00:00 14.04618 C 88.4722 % 12.17 C
130 19-10-2018 00:00:00 12.08785 C 87.8889 % 10.14 C
131 20-10-2018 00:00:00 11.03542 C 86.2431 % 8.83 C
132 21-10-2018 00:00:00 7.3066 C 91.4479 % 6.01 C
133 22-10-2018 00:00:00 7.67014 C 90.5417 % 6.22 C
134 23-10-2018 00:00:00 9.04306 C 84.6944 % 6.61 C
135 24-10-2018 00:00:00 14.07604 C 86.3472 % 11.83 C
136 25-10-2018 00:00:00 12.94722 C 83.3368 % 10.19 C
137 26-10-2018 00:00:00 10.21354 C 80.8299 % 7.07 C
138 27-10-2018 00:00:00 6.27118 C 90.9340 % 4.9 C
139 28-10-2018 00:00:00 5.67778 C 83.1424 % 3.05 C
140 29-10-2018 00:00:00 6.43264 C 84.8160 % 4.07 C
141 30-10-2018 00:00:00 6.2809 C 91.5868 % 5.02 C
142 31-10-2018 00:00:00 7.45382 C 86.8194 % 5.41 C
143 01-11-2018 00:00:00 6.13194 C 95.0799 % 5.4 C
144 02-11-2018 00:00:00 8.86597 C 94.0486 % 7.96 C
145 03-11-2018 00:00:00 3.50521 C 96.4549 % 3 C
146 04-11-2018 00:00:00 6.86007 C 95.2361 % 6.15 C
147 05-11-2018 00:00:00 10.39097 C 92.1042 % 9.17 C
148 06-11-2018 00:00:00 8.41806 C 95.6667 % 7.77 C
149 07-11-2018 00:00:00 9.32118 C 92.4167 % 8.16 C
150 08-11-2018 00:00:00 10.425 C 89.0660 % 8.7 C
Sensor: Nr:Datum:Temp:Feuchte:Taupunkt:
Aussen-T/F 151 09-11-2018 00:00:00 9.62604 C 92.9861 % 8.55 C
152 10-11-2018 00:00:00 11.90347 C 90.1250 % 10.34 C
153 11-11-2018 00:00:00 12.04618 C 90.5972 % 10.56 C
154 12-11-2018 00:00:00 13.70069 C 90.0278 % 12.1 C
155 13-11-2018 00:00:00 10.46076 C 92.4965 % 9.3 C
156 14-11-2018 00:00:00 6.18264 C 96.5938 % 5.68 C
157 15-11-2018 00:00:00 6.9816 C 91.5660 % 5.71 C
158 16-11-2018 00:00:00 5.92778 C 89.7882 % 4.38 C
159 17-11-2018 00:00:00 2.75417 C 88.6667 % 1.07 C
160 18-11-2018 00:00:00 1.8566 C 79.8333 % -1.25 C
161 19-11-2018 00:00:00 3.57014 C 81.2153 % 0.66 C
162 20-11-2018 00:00:00 3.50972 C 80.1910 % 0.43 C
163 21-11-2018 00:00:00 2.50312 C 88.6979 % 0.83 C
164 22-11-2018 00:00:00 2.91458 C 88.0903 % 1.14 C
165 23-11-2018 00:00:00 0.10868 C 95.3785 % -0.54 C
166 24-11-2018 00:00:00 4.74792 C 96.2674 % 4.21 C
167 25-11-2018 00:00:00 5.98785 C 95.8785 % 5.38 C
168 26-11-2018 00:00:00 6.65625 C 87.8958 % 4.8 C
169 27-11-2018 00:00:00 4.12465 C 83.8368 % 1.64 C
170 28-11-2018 00:00:00 3.7 C 91.6667 % 2.47 C
171 29-11-2018 00:00:00 5.67875 C 92.7735 % 4.6 C
172 30-11-2018 00:00:00 7.44514 C 94.6875 % 6.65 C
173 01-12-2018 00:00:00 7.48993 C 91.5833 % 6.21 C
174 02-12-2018 00:00:00 11.28056 C 93.0868 % 10.21 C
175 03-12-2018 00:00:00 11.76701 C 95.7708 % 11.11 C
Sensor: Nr:Datum:Temp:Feuchte:Taupunkt:
Aussen-T/F 176 04-12-2018 00:00:00 6.48715 C 90.9653 % 5.12 C
177 05-12-2018 00:00:00 3.60729 C 96.1806 % 3.06 C
178 06-12-2018 00:00:00 9.76042 C 93.8924 % 8.83 C
179 07-12-2018 00:00:00 11.22882 C 86.6667 % 9.09 C
180 08-12-2018 00:00:00 7.97361 C 88.5035 % 6.19 C
181 09-12-2018 00:00:00 8.02544 C 87.9756 % 6.16 C
182 10-12-2018 00:00:00 4.96771 C 91.2639 % 3.67 C
183 11-12-2018 00:00:00 3.84375 C 93.7118 % 2.93 C
184 12-12-2018 00:00:00 2.70801 C 95.4948 % 2.06 C
185 13-12-2018 00:00:00 1.36181 C 87.4618 % -0.49 C
186 14-12-2018 00:00:00 1.15521 C 77.4757 % -2.33 C
187 15-12-2018 00:00:00 0.62683 C 78.6202 % -2.65 C
188 16-12-2018 00:00:00 0.77743 C 90.5382 % -0.59 C
189 17-12-2018 00:00:00 4.19722 C 94.8194 % 3.44 C
190 18-12-2018 00:00:00 5.08229 C 90.2917 % 3.63 C
191 19-12-2018 00:00:00 6.54495 C 88.8537 % 4.84 C
192 20-12-2018 00:00:00 7.58741 C 89.6818 % 6 C
193 21-12-2018 00:00:00 10.78507 C 86.4514 % 8.62 C
194 22-12-2018 00:00:00 9.94266 C 85.9091 % 7.7 C
195 23-12-2018 00:00:00 8.60868 C 93.6563 % 7.65 C
196 24-12-2018 00:00:00 4.88924 C 90.8750 % 3.53 C
197 25-12-2018 00:00:00 1.85208 C 93.1667 % 0.87 C
198 26-12-2018 00:00:00 -0.91736 C 95.5035 % -1.54 C
199 27-12-2018 00:00:00 0.08125 C 95.8090 % -0.51 C
200 28-12-2018 00:00:00 0.225 C 94.9375 % -0.49 C
Sensor: Nr:Datum:Temp:Feuchte:Taupunkt:
Aussen-T/F 201 29-12-2018 00:00:00 2.70972 C 93.3576 % 1.75 C
202 30-12-2018 00:00:00 7.50313 C 87.4271 % 5.55 C
203 31-12-2018 00:00:00 7.59271 C 96.4201 % 7.06 C
204 01-01-2019 00:00:00 7.09271 C 92.0833 % 5.9 C
205 02-01-2019 00:00:00 3.70104 C 82.7847 % 1.05 C
206 03-01-2019 00:00:00 2.03715 C 93.0000 % 1.03 C
207 04-01-2019 00:00:00 3.13785 C 91.9826 % 1.96 C
208 05-01-2019 00:00:00 5.92632 C 93.3825 % 4.94 C
209 06-01-2019 00:00:00 5.76944 C 91.7674 % 4.54 C
210 07-01-2019 00:00:00 5.50417 C 89.8819 % 3.98 C
211 08-01-2019 00:00:00 6.62222 C 85.9688 % 4.45 C
212 09-01-2019 00:00:00 3.90486 C 83.8368 % 1.43 C
213 10-01-2019 00:00:00 2.05694 C 83.7708 % -0.39 C
214 11-01-2019 00:00:00 2.82847 C 94.7882 % 2.08 C
215 12-01-2019 00:00:00 5.96702 C 92.9734 % 4.92 C
216 13-01-2019 00:00:00 7.73715 C 94.1493 % 6.86 C
217 14-01-2019 00:00:00 5.07083 C 89.5625 % 3.5 C
218 15-01-2019 00:00:00 4.78854 C 89.1007 % 3.15 C
219 16-01-2019 00:00:00 5.27187 C 85.4861 % 3.04 C
220 17-01-2019 00:00:00 5.0066 C 87.3924 % 3.09 C
221 18-01-2019 00:00:00 0.77569 C 91.8611 % -0.39 C
222 19-01-2019 00:00:00 -2.72396 C 93.3299 % -3.65 C
223 20-01-2019 00:00:00 -4.97187 C 92.8854 % -5.94 C
224 21-01-2019 00:00:00 -6.20972 C 93.8472 % -7.04 C
225 22-01-2019 00:00:00 -4.96667 C 92.0938 % -6.05 C
Sensor: Nr:Datum:Temp:Feuchte:Taupunkt:
Aussen-T/F 226 23-01-2019 00:00:00 -1.57743 C 89.4028 % -3.09 C
227 24-01-2019 00:00:00 -1.91736 C 83.8854 % -4.27 C
228 25-01-2019 00:00:00 0.28403 C 88.1354 % -1.44 C
229 26-01-2019 00:00:00 4.48229 C 92.3229 % 3.35 C
230 27-01-2019 00:00:00 5.94583 C 90.0868 % 4.45 C
231 28-01-2019 00:00:00 3.17118 C 90.8854 % 1.83 C
232 29-01-2019 00:00:00 1.73021 C 89.6875 % 0.22 C
233 30-01-2019 00:00:00 0.45972 C 93.3264 % -0.49 C
234 31-01-2019 00:00:00 -0.09826 C 94.7188 % -0.84 C
235 01-02-2019 00:00:00 1.74826 C 95.6389 % 1.13 C
236 02-02-2019 00:00:00 2.46701 C 96.8611 % 2.02 C
237 03-02-2019 00:00:00 2.7 C 88.6910 % 1.02 C
238 04-02-2019 00:00:00 1.83229 C 87.0625 % -0.09 C
239 05-02-2019 00:00:00 4.34375 C 81.1771 % 1.41 C
240 06-02-2019 00:00:00 1.17639 C 89.9688 % -0.28 C
241 07-02-2019 00:00:00 5.09549 C 88.0833 % 3.29 C
242 08-02-2019 00:00:00 7.42604 C 83.5417 % 4.83 C
243 09-02-2019 00:00:00 8.6309 C 79.8056 % 5.35 C
244 10-02-2019 00:00:00 7.96076 C 88.4965 % 6.18 C
245 11-02-2019 00:00:00 4.86736 C 86.4931 % 2.81 C
246 12-02-2019 00:00:00 3.71597 C 86.6563 % 1.7 C
247 13-02-2019 00:00:00 1.77951 C 91.5833 % 0.56 C
248 14-02-2019 00:00:00 0.77431 C 92.7674 % -0.26 C
249 15-02-2019 00:00:00 2.33854 C 89.2917 % 0.76 C
250 16-02-2019 00:00:00 3.375 C 88.6319 % 1.68 C
Sensor: Nr:Datum:Temp:Feuchte:Taupunkt:
Aussen-T/F 251 17-02-2019 00:00:00 3.45451 C 89.9236 % 1.96 C
252 18-02-2019 00:00:00 3.69653 C 86.8368 % 1.71 C
253 19-02-2019 00:00:00 5.85868 C 87.7118 % 3.98 C
254 20-02-2019 00:00:00 4.70694 C 89.0660 % 3.06 C
255 21-02-2019 00:00:00 6.3625 C 90.0174 % 4.85 C
256 22-02-2019 00:00:00 9.91111 C 88.0347 % 8.03 C
257 23-02-2019 00:00:00 5.41076 C 78.7188 % 2.02 C
258 24-02-2019 00:00:00 3.39271 C 73.0729 % -0.96 C
259 25-02-2019 00:00:00 5.05139 C 74.1181 % 0.83 C
260 26-02-2019 00:00:00 6.18646 C 80.1042 % 3.02 C
261 27-02-2019 00:00:00 6.63576 C 79.5313 % 3.36 C
262 28-02-2019 00:00:00 8.81701 C 78.9201 % 5.37 C
263 01-03-2019 00:00:00 8.12708 C 91.9583 % 6.9 C
264 02-03-2019 00:00:00 8.64236 C 85.0868 % 6.28 C
265 03-03-2019 00:00:00 11.11319 C 80.0069 % 7.8 C
266 04-03-2019 00:00:00 9.71875 C 78.3854 % 6.15 C
267 05-03-2019 00:00:00 6.87396 C 81.6181 % 3.95 C
268 06-03-2019 00:00:00 10.01944 C 78.9792 % 6.55 C
269 07-03-2019 00:00:00 10.20729 C 79.2014 % 6.77 C
270 08-03-2019 00:00:00 8.18854 C 79.1181 % 4.79 C
271 09-03-2019 00:00:00 10.36875 C 76.7188 % 6.46 C
272 10-03-2019 00:00:00 9.55694 C 76.8507 % 5.7 C
273 11-03-2019 00:00:00 4.7934 C 79.8264 % 1.61 C
274 12-03-2019 00:00:00 6.61563 C 70.1319 % 1.57 C
275 13-03-2019 00:00:00 6.20382 C 82.8472 % 3.51 C
Sensor: Nr:Datum:Temp:Feuchte:Taupunkt:
Aussen-T/F 276 14-03-2019 00:00:00 7.03611 C 87.2674 % 5.07 C
277 15-03-2019 00:00:00 10.13993 C 87.2014 % 8.11 C
278 16-03-2019 00:00:00 10.23472 C 85.5417 % 7.92 C
279 17-03-2019 00:00:00 8.66319 C 77.8160 % 5.02 C
280 18-03-2019 00:00:00 4.96458 C 85.1458 % 2.68 C
281 19-03-2019 00:00:00 3.83715 C 80.5000 % 0.8 C
282 20-03-2019 00:00:00 5.47951 C 77.2882 % 1.83 C
283 21-03-2019 00:00:00 7.53194 C 73.6076 % 3.13 C
284 22-03-2019 00:00:00 9.15799 C 72.1563 % 4.41 C
285 23-03-2019 00:00:00 6.18576 C 87.5035 % 4.27 C
286 24-03-2019 00:00:00 6.4583 C 83.7380 % 3.91 C
287 25-03-2019 00:00:00 5.13299 C 86.0243 % 2.99 C
288 26-03-2019 00:00:00 6.64792 C 81.5799 % 3.73 C
289 27-03-2019 00:00:00 6.81528 C 80.7535 % 3.75 C
290 28-03-2019 00:00:00 7.32535 C 81.7951 % 4.43 C
291 29-03-2019 00:00:00 8.96493 C 79.2708 % 5.57 C
292 30-03-2019 00:00:00 10.50104 C 72.7500 % 5.82 C
293 31-03-2019 00:00:00 10.31594 C 80.1486 % 7.05 C
294 01-04-2019 00:00:00 9.41771 C 75.2326 % 5.26 C
295 02-04-2019 00:00:00 10.74375 C 76.1979 % 6.73 C
296 03-04-2019 00:00:00 8.37083 C 86.8889 % 6.32 C
297 04-04-2019 00:00:00 6.05799 C 93.2604 % 5.05 C
298 05-04-2019 00:00:00 6.32535 C 92.0556 % 5.13 C
299 06-04-2019 00:00:00 10.20313 C 83.4549 % 7.53 C
300 07-04-2019 00:00:00 12.02083 C 75.0764 % 7.75 C
Sensor: Nr:Datum:Temp:Feuchte:Taupunkt:
Aussen-T/F 301 08-04-2019 00:00:00 12.69757 C 85.2188 % 10.28 C
302 09-04-2019 00:00:00 12.23472 C 88.4201 % 10.38 C
303 10-04-2019 00:00:00 10.80035 C 65.8750 % 4.69 C
304 11-04-2019 00:00:00 6.94306 C 60.9931 % -0.05 C
305 12-04-2019 00:00:00 5.01528 C 58.9653 % -2.32 C
306 13-04-2019 00:00:00 3.85556 C 75.6458 % -0.04 C
307 14-04-2019 00:00:00 5.53576 C 76.5590 % 1.75 C
308 15-04-2019 00:00:00 10.42187 C 69.5868 % 5.11 C
309 16-04-2019 00:00:00 11.20417 C 67.0417 % 5.32 C
310 17-04-2019 00:00:00 12.74861 C 83.8576 % 10.09 C
311 18-04-2019 00:00:00 14.16528 C 65.0556 % 7.7 C
312 19-04-2019 00:00:00 15.41285 C 56.3681 % 6.78 C
313 20-04-2019 00:00:00 14.87153 C 61.3125 % 7.5 C
314 21-04-2019 00:00:00 15.62813 C 58.4688 % 7.52 C
315 22-04-2019 00:00:00 14.99375 C 59.5382 % 7.19 C
316 23-04-2019 00:00:00 15.15903 C 61.0799 % 7.72 C
317 24-04-2019 00:00:00 15.11424 C 73.1042 % 10.34 C
318 25-04-2019 00:00:00 13.28785 C 78.5139 % 9.64 C
319 26-04-2019 00:00:00 11.86806 C 83.8681 % 9.23 C
320 27-04-2019 00:00:00 9.34688 C 89.7569 % 7.75 C
321 28-04-2019 00:00:00 8.50208 C 83.0000 % 5.79 C
322 29-04-2019 00:00:00 8.56736 C 84.4653 % 6.1 C
323 30-04-2019 00:00:00 14.05278 C 68.6979 % 8.39 C
324 01-05-2019 00:00:00 12.7816 C 76.3333 % 8.73 C
325 02-05-2019 00:00:00 11.4566 C 80.2535 % 8.18 C
Sensor: Nr:Datum:Temp:Feuchte:Taupunkt:
Aussen-T/F 326 03-05-2019 00:00:00 11.00208 C 73.3056 % 6.42 C
327 04-05-2019 00:00:00 6.36493 C 84.2014 % 3.9 C
328 05-05-2019 00:00:00 6.67882 C 81.4167 % 3.73 C
329 06-05-2019 00:00:00 7.62465 C 77.0660 % 3.87 C
330 07-05-2019 00:00:00 9.6066 C 73.7396 % 5.16 C
331 08-05-2019 00:00:00 9.41667 C 88.5972 % 7.63 C
332 09-05-2019 00:00:00 11.20938 C 88.9410 % 9.46 C
333 10-05-2019 00:00:00 12.49306 C 77.5833 % 8.69 C
334 11-05-2019 00:00:00 10.05833 C 93.1111 % 9 C
335 12-05-2019 00:00:00 9.40625 C 72.7778 % 4.78 C
336 13-05-2019 00:00:00 9.96736 C 61.6701 % 2.96 C
337 14-05-2019 00:00:00 9.58299 C 64.4479 % 3.22 C
338 15-05-2019 00:00:00 9.79896 C 60.9583 % 2.64 C
339 16-05-2019 00:00:00 10.83854 C 70.4271 % 5.68 C
340 17-05-2019 00:00:00 11.60069 C 89.4896 % 9.93 C
341 18-05-2019 00:00:00 14.44306 C 85.5035 % 12.04 C
342 19-05-2019 00:00:00 15.85694 C 83.5868 % 13.08 C
343 20-05-2019 00:00:00 13.90347 C 89.8125 % 12.26 C
344 21-05-2019 00:00:00 12.49722 C 93.0868 % 11.41 C
345 22-05-2019 00:00:00 13.38785 C 80.8681 % 10.17 C
346 23-05-2019 00:00:00 15.11875 C 74.1389 % 10.55 C
347 24-05-2019 00:00:00 16.93437 C 70.9271 % 11.63 C
348 25-05-2019 00:00:00 15.60035 C 67.4167 % 9.59 C
349 26-05-2019 00:00:00 15.92014 C 74.4549 % 11.39 C
350 27-05-2019 00:00:00 14.98924 C 90.8889 % 13.51 C
Sensor: Nr:Datum:Temp:Feuchte:Taupunkt:
Aussen-T/F 351 28-05-2019 00:00:00 13.95729 C 85.1146 % 11.5 C
352 29-05-2019 00:00:00 14.97951 C 68.2535 % 9.18 C
353 30-05-2019 00:00:00 15.62396 C 78.5069 % 11.9 C
354 31-05-2019 00:00:00 19.22674 C 74.1806 % 14.52 C
355 01-06-2019 00:00:00 19.98924 C 74.3090 % 15.28 C
356 02-06-2019 00:00:00 22.09028 C 70.5521 % 16.49 C
357 03-06-2019 00:00:00 20.85625 C 73.4583 % 15.94 C
358 04-06-2019 00:00:00 21.5059 C 73.6146 % 16.59 C
359 05-06-2019 00:00:00 23.45243 C 67.8507 % 17.17 C
360 06-06-2019 00:00:00 15.94271 C 78.5556 % 12.22 C
361 07-06-2019 00:00:00 15.6809 C 76.3646 % 11.54 C
362 08-06-2019 00:00:00 16.15243 C 62.7743 % 9.06 C
363 09-06-2019 00:00:00 16.23438 C 72.8542 % 11.36 C
364 10-06-2019 00:00:00 19.2684 C 73.8403 % 14.49 C
365 11-06-2019 00:00:00 17.19063 C 83.4826 % 14.37 C
366 12-06-2019 00:00:00 16.48854 C 82.3194 % 13.47 C
367 13-06-2019 00:00:00 15.92743 C 75.5694 % 11.62 C
368 14-06-2019 00:00:00 17.88507 C 82.6875 % 14.9 C
369 15-06-2019 00:00:00 19.62083 C 79.3646 % 15.95 C
370 16-06-2019 00:00:00 19.34479 C 71.4271 % 14.05 C
371 17-06-2019 00:00:00 18.93646 C 73.1111 % 14.02 C
372 18-06-2019 00:00:00 21.4625 C 72.7188 % 16.36 C
373 19-06-2019 00:00:00 22.17049 C 73.3125 % 17.17 C
374 20-06-2019 00:00:00 19.48229 C 80.3681 % 16.01 C
375 21-06-2019 00:00:00 18.55694 C 68.4306 % 12.64 C
Sensor: Nr:Datum:Temp:Feuchte:Taupunkt:
Aussen-T/F 376 22-06-2019 00:00:00 19.16771 C 69.5729 % 13.47 C
377 23-06-2019 00:00:00 21.78854 C 71.5521 % 16.42 C
378 24-06-2019 00:00:00 24.3809 C 68.9965 % 18.32 C
379 25-06-2019 00:00:00 26.30625 C 65.6458 % 19.36 C
380 26-06-2019 00:00:00 26.97257 C 66.5486 % 20.21 C
381 27-06-2019 00:00:00 24.42326 C 58.6910 % 15.81 C
382 28-06-2019 00:00:00 21.63368 C 60.1458 % 13.57 C
383 29-06-2019 00:00:00 24.00937 C 53.3750 % 13.95 C
384 30-06-2019 00:00:00 25.32014 C 62.4688 % 17.63 C
385 01-07-2019 00:00:00 22.68715 C 60.6875 % 14.7 C
386 02-07-2019 00:00:00 19.04306 C 61.0868 % 11.38 C
387 03-07-2019 00:00:00 17.43472 C 61.1146 % 9.87 C
388 04-07-2019 00:00:00 18.23021 C 56.4375 % 9.43 C
389 05-07-2019 00:00:00 20.73889 C 56.5486 % 11.8 C
390 06-07-2019 00:00:00 21.18681 C 61.5174 % 13.5 C
391 07-07-2019 00:00:00 17.74306 C 68.3819 % 11.85 C
392 08-07-2019 00:00:00 14.44931 C 70.9271 % 9.25 C
393 09-07-2019 00:00:00 15.40868 C 66.0868 % 9.11 C
394 10-07-2019 00:00:00 16.98854 C 57.9271 % 8.66 C
395 11-07-2019 00:00:00 17.76076 C 79.7500 % 14.22 C
396 12-07-2019 00:00:00 17.3375 C 92.0313 % 16.03 C
397 13-07-2019 00:00:00 17.99896 C 83.4549 % 15.15 C
398 14-07-2019 00:00:00 16.92569 C 75.5729 % 12.58 C
399 15-07-2019 00:00:00 16.34757 C 73.9826 % 11.7 C
400 16-07-2019 00:00:00 16.0375 C 75.3507 % 11.68 C
Sensor: Nr:Datum:Temp:Feuchte:Taupunkt:
Aussen-T/F 401 17-07-2019 00:00:00 17.21979 C 76.2847 % 13.01 C
402 18-07-2019 00:00:00 19.06944 C 74.1424 % 14.36 C
403 19-07-2019 00:00:00 20.2441 C 77.7257 % 16.23 C
404 20-07-2019 00:00:00 21.61736 C 75.2292 % 17.04 C
405 21-07-2019 00:00:00 21.96076 C 68.7569 % 15.96 C
406 22-07-2019 00:00:00 22.29861 C 66.0139 % 15.64 C
407 23-07-2019 00:00:00 25.05139 C 61.5764 % 17.15 C
408 24-07-2019 00:00:00 27.05069 C 57.6528 % 17.98 C
409 25-07-2019 00:00:00 28.69028 C 53.5729 % 18.33 C
410 26-07-2019 00:00:00 27.21528 C 56.0694 % 17.69 C
411 27-07-2019 00:00:00 23.20069 C 79.9340 % 19.54 C
412 28-07-2019 00:00:00 19.86597 C 90.5938 % 18.28 C
413 29-07-2019 00:00:00 21.16354 C 73.6146 % 16.26 C
414 30-07-2019 00:00:00 21.86528 C 66.5625 % 15.36 C
415 31-07-2019 00:00:00 21.06111 C 60.7778 % 13.2 C
416 01-08-2019 00:00:00 19.46424 C 65.5833 % 12.85 C
417 02-08-2019 00:00:00 20.52743 C 69.8611 % 14.84 C
418 03-08-2019 00:00:00 20.39271 C 72.5833 % 15.3 C
419 04-08-2019 00:00:00 20.53854 C 68.3681 % 14.51 C
420 05-08-2019 00:00:00 22.56562 C 67.3333 % 16.21 C
421 06-08-2019 00:00:00 19.97604 C 80.0104 % 16.42 C
422 07-08-2019 00:00:00 19.07535 C 87.4479 % 16.94 C
423 08-08-2019 00:00:00 20.39132 C 75.4826 % 15.91 C
424 09-08-2019 00:00:00 19.85833 C 86.8125 % 17.6 C
425 10-08-2019 00:00:00 20.67986 C 77.2986 % 16.56 C
Sensor: Nr:Datum:Temp:Feuchte:Taupunkt:
Aussen-T/F 426 11-08-2019 00:00:00 16.99444 C 80.9028 % 13.69 C
427 12-08-2019 00:00:00 16.4441 C 84.5729 % 13.84 C
428 13-08-2019 00:00:00 15.94306 C 78.5799 % 12.23 C
429 14-08-2019 00:00:00 16.52882 C 76.0139 % 12.29 C
430 15-08-2019 00:00:00 17.34306 C 88.4896 % 15.42 C
431 16-08-2019 00:00:00 17.72257 C 80.7049 % 14.37 C
432 17-08-2019 00:00:00 18.07049 C 86.6146 % 15.8 C
433 18-08-2019 00:00:00 19.8941 C 90.2847 % 18.25 C
434 19-08-2019 00:00:00 18.3684 C 77.8715 % 14.44 C
435 20-08-2019 00:00:00 15.78611 C 80.0347 % 12.35 C
436 21-08-2019 00:00:00 16.52222 C 75.4306 % 12.17 C
437 22-08-2019 00:00:00 17.27465 C 72.3576 % 12.26 C
438 23-08-2019 00:00:00 18.44792 C 70.9271 % 13.08 C
439 24-08-2019 00:00:00 19.52326 C 70.7153 % 14.06 C
440 25-08-2019 00:00:00 21.57431 C 75.4097 % 17.04 C
441 26-08-2019 00:00:00 22.3684 C 80.4097 % 18.83 C
442 27-08-2019 00:00:00 22.81979 C 79.4132 % 19.07 C
443 28-08-2019 00:00:00 23.38924 C 73.0868 % 18.29 C
444 29-08-2019 00:00:00 22.04201 C 76.9236 % 17.81 C
445 30-08-2019 00:00:00 21.0059 C 72.4444 % 15.86 C
446 31-08-2019 00:00:00 22.0566 C 72.1215 % 16.8 C
447 01-09-2019 00:00:00 18.73056 C 76.1563 % 14.45 C
448 02-09-2019 00:00:00 15.43958 C 67.8264 % 9.53 C
449 03-09-2019 00:00:00 15.68611 C 70.4340 % 10.33 C
450 04-09-2019 00:00:00 16.83646 C 77.0521 % 12.79 C
Sensor: Nr:Datum:Temp:Feuchte:Taupunkt:
Aussen-T/F 451 05-09-2019 00:00:00 15.41285 C 74.8958 % 10.99 C
452 06-09-2019 00:00:00 13.54271 C 71.3021 % 8.45 C
453 07-09-2019 00:00:00 12.95382 C 86.8160 % 10.81 C
454 08-09-2019 00:00:00 12.67778 C 94.2569 % 11.78 C
455 09-09-2019 00:00:00 12.50868 C 90.4583 % 10.99 C
456 10-09-2019 00:00:00 11.86563 C 85.2361 % 9.47 C
457 11-09-2019 00:00:00 13.34931 C 80.9444 % 10.15 C
458 12-09-2019 00:00:00 19.07292 C 78.3889 % 15.23 C
459 13-09-2019 00:00:00 17.76319 C 88.1424 % 15.78 C
460 14-09-2019 00:00:00 15.58229 C 81.1806 % 12.37 C
461 15-09-2019 00:00:00 15.40243 C 78.5451 % 11.69 C
462 16-09-2019 00:00:00 16.09444 C 78.7569 % 12.41 C
463 17-09-2019 00:00:00 15.6191 C 73.6736 % 10.94 C
464 18-09-2019 00:00:00 11.41215 C 73.9826 % 6.95 C
465 19-09-2019 00:00:00 10.47361 C 74.5903 % 6.16 C
466 20-09-2019 00:00:00 10.72153 C 72.3958 % 5.97 C
467 21-09-2019 00:00:00 12.32465 C 69.3090 % 6.87 C
468 22-09-2019 00:00:00 14.8625 C 75.8819 % 10.65 C
469 23-09-2019 00:00:00 16.54479 C 84.7118 % 13.96 C
470 24-09-2019 00:00:00 14.13194 C 90.2847 % 12.57 C
471 25-09-2019 00:00:00 15.26806 C 90.7986 % 13.77 C
472 26-09-2019 00:00:00 16.26111 C 92.6840 % 15.07 C
473 27-09-2019 00:00:00 16.20451 C 86.9097 % 14.02 C
474 28-09-2019 00:00:00 15.30903 C 84.9306 % 12.79 C
475 29-09-2019 00:00:00 16.12778 C 82.9965 % 13.24 C
Sensor: Nr:Datum:Temp:Feuchte:Taupunkt:
Aussen-T/F 476 30-09-2019 00:00:00 15.31424 C 80.2917 % 11.94 C
477 01-10-2019 00:00:00 15.98125 C 88.2743 % 14.04 C
478 02-10-2019 00:00:00 12.49479 C 83.0764 % 9.7 C
479 03-10-2019 00:00:00 9.77535 C 90.5313 % 8.3 C
480 04-10-2019 00:00:00 10.31563 C 95.1563 % 9.58 C
481 05-10-2019 00:00:00 10.64965 C 87.9444 % 8.74 C
482 06-10-2019 00:00:00 8.34063 C 95.9896 % 7.74 C
483 07-10-2019 00:00:00 10.09167 C 94.3785 % 9.23 C
484 08-10-2019 00:00:00 12.83333 C 94.7292 % 12.01 C
485 09-10-2019 00:00:00 11.68715 C 92.5069 % 10.51 C
486 10-10-2019 00:00:00 11.67509 C 86.3404 % 9.47 C
487 11-10-2019 00:00:00 12.72361 C 89.2500 % 11 C
488 12-10-2019 00:00:00 13.63368 C 89.1597 % 11.88 C
489 13-10-2019 00:00:00 16.44722 C 91.2153 % 15.01 C
490 14-10-2019 00:00:00 16.00938 C 89.6632 % 14.31 C
491 15-10-2019 00:00:00 14.32674 C 92.2014 % 13.08 C
492 16-10-2019 00:00:00 12.65347 C 94.1042 % 11.73 C
493 17-10-2019 00:00:00 14.64826 C 90.9861 % 13.19 C
494 18-10-2019 00:00:00 12.52604 C 91.7500 % 11.22 C
495 19-10-2019 00:00:00 12.88561 C 90.9460 % 11.44 C
496 20-10-2019 00:00:00 13.60139 C 97.5645 % 13.22 C
497 21-10-2019 00:00:00 13.67735 C 93.5157 % 12.65 C
498 22-10-2019 00:00:00 11.49819 C 91.8520 % 10.22 C
499 23-10-2019 00:00:00 11.05972 C 94.7847 % 10.26 C
500 24-10-2019 00:00:00 14.06458 C 92.1528 % 12.81 C
Sensor: Nr:Datum:Temp:Feuchte:Taupunkt:
Aussen-T/F 501 25-10-2019 00:00:00 13.32951 C 87.3889 % 11.28 C
502 26-10-2019 00:00:00 13.17604 C 91.4201 % 11.81 C
503 27-10-2019 00:00:00 10.25174 C 93.0868 % 9.19 C
504 28-10-2019 00:00:00 6.33854 C 96.7847 % 5.87 C
505 29-10-2019 00:00:00 6.56632 C 92.0972 % 5.38 C
506 30-10-2019 00:00:00 3.52778 C 93.9410 % 2.65 C
507 31-10-2019 00:00:00 2.23438 C 93.5799 % 1.31 C
508 01-11-2019 00:00:00 6.02465 C 96.1736 % 5.46 C
509 02-11-2019 00:00:00 13.19792 C 90.2188 % 11.63 C
510 03-11-2019 00:00:00 11.85035 C 91.8125 % 10.56 C
511 04-11-2019 00:00:00 10.33333 C 92.9306 % 9.24 C
512 05-11-2019 00:00:00 9.70972 C 89.4826 % 8.07 C
513 06-11-2019 00:00:00 8.97569 C 95.1563 % 8.24 C
514 07-11-2019 00:00:00 7.93611 C 95.3368 % 7.24 C
515 08-11-2019 00:00:00 4.99444 C 96.5208 % 4.49 C
516 09-11-2019 00:00:00 4.99167 C 94.0208 % 4.11 C
517 10-11-2019 00:00:00 3.02188 C 95.6250 % 2.39 C
518 11-11-2019 00:00:00 4.67986 C 91.5590 % 3.43 C
519 12-11-2019 00:00:00 5.9125 C 88.3194 % 4.13 C
520 13-11-2019 00:00:00 5.47431 C 88.2153 % 3.68 C
521 14-11-2019 00:00:00 5.50729 C 85.9549 % 3.35 C
522 15-11-2019 00:00:00 4.68958 C 88.1493 % 2.9 C
523 16-11-2019 00:00:00 2.11389 C 95.5069 % 1.47 C
524 17-11-2019 00:00:00 3.09271 C 97.1215 % 2.68 C
525 18-11-2019 00:00:00 4.31181 C 96.2604 % 3.77 C
Sensor: Nr:Datum:Temp:Feuchte:Taupunkt:
Aussen-T/F 526 19-11-2019 00:00:00 3.99132 C 94.7500 % 3.23 C
527 20-11-2019 00:00:00 1.59583 C 94.7847 % 0.85 C
528 21-11-2019 00:00:00 1.90833 C 96.0347 % 1.34 C
529 22-11-2019 00:00:00 4.39097 C 95.3056 % 3.71 C
530 23-11-2019 00:00:00 5.38785 C 93.0174 % 4.35 C
531 24-11-2019 00:00:00 2.90104 C 97.1979 % 2.5 C
532 25-11-2019 00:00:00 4.80833 C 97.1042 % 4.39 C
533 26-11-2019 00:00:00 8.38542 C 94.7500 % 7.59 C
534 27-11-2019 00:00:00 10.34479 C 89.7222 % 8.73 C
535 28-11-2019 00:00:00 10.92778 C 83.5694 % 8.26 C
536 29-11-2019 00:00:00 6.44618 C 89.1771 % 4.8 C
537 30-11-2019 00:00:00 1.19549 C 96.2257 % 0.66 C
538 01-12-2019 00:00:00 1.79271 C 92.4965 % 0.71 C
539 02-12-2019 00:00:00 1.98646 C 93.2778 % 1.02 C
540 03-12-2019 00:00:00 4.75729 C 96.0625 % 4.18 C
541 04-12-2019 00:00:00 1.34375 C 96.3681 % 0.83 C
542 05-12-2019 00:00:00 -1.15625 C 96.9167 % -1.58 C
543 06-12-2019 00:00:00 3.41285 C 93.3160 % 2.44 C
544 07-12-2019 00:00:00 8.70903 C 88.7882 % 6.97 C
545 08-12-2019 00:00:00 10.05903 C 86.0243 % 7.83 C
546 09-12-2019 00:00:00 7.72222 C 84.5833 % 5.29 C
547 10-12-2019 00:00:00 3.24757 C 90.9167 % 1.91 C
548 11-12-2019 00:00:00 3.97292 C 94.6632 % 3.2 C
549 12-12-2019 00:00:00 3.52361 C 93.9618 % 2.65 C
550 13-12-2019 00:00:00 4.09722 C 92.0938 % 2.93 C
Sensor: Nr:Datum:Temp:Feuchte:Taupunkt:
Aussen-T/F 551 14-12-2019 00:00:00 6.8934 C 85.5833 % 4.65 C
552 15-12-2019 00:00:00 7.90069 C 88.2847 % 6.09 C
553 16-12-2019 00:00:00 8.12951 C 96.7951 % 7.65 C
554 17-12-2019 00:00:00 10.43056 C 89.8924 % 8.85 C
555 18-12-2019 00:00:00 7.77014 C 93.5347 % 6.79 C
556 19-12-2019 00:00:00 5.57986 C 95.8611 % 4.97 C
557 20-12-2019 00:00:00 7.73264 C 92.3542 % 6.57 C
558 21-12-2019 00:00:00 7.24826 C 90.1111 % 5.74 C
559 22-12-2019 00:00:00 8.18368 C 89.0243 % 6.49 C
560 23-12-2019 00:00:00 7.83021 C 88.5660 % 6.06 C
561 24-12-2019 00:00:00 7.67986 C 89.1910 % 6.02 C
562 25-12-2019 00:00:00 7.66389 C 90.7500 % 6.25 C
563 26-12-2019 00:00:00 4.9934 C 96.1910 % 4.44 C
564 27-12-2019 00:00:00 5.12153 C 94.6042 % 4.33 C
565 28-12-2019 00:00:00 -0.27465 C 95.9965 % -0.83 C
566 29-12-2019 00:00:00 -1.04618 C 95.4028 % -1.69 C
567 30-12-2019 00:00:00 -0.88507 C 94.5521 % -1.65 C
568 31-12-2019 00:00:00 0.52326 C 93.2639 % -0.44 C
569 01-01-2020 00:00:00 0.89583 C 94.9653 % 0.18 C
570 02-01-2020 00:00:00 1.68611 C 94.9097 % 0.96 C
571 03-01-2020 00:00:00 7.56111 C 91.1042 % 6.21 C
572 04-01-2020 00:00:00 5.45936 C 89.2438 % 3.83 C
573 05-01-2020 00:00:00 5.96021 C 93.0845 % 4.93 C
574 06-01-2020 00:00:00 2.98542 C 93.2813 % 2.01 C
575 07-01-2020 00:00:00 5.07812 C 92.2535 % 3.93 C
Sensor: Nr:Datum:Temp:Feuchte:Taupunkt:
Aussen-T/F 576 08-01-2020 00:00:00 8.28333 C 92.5347 % 7.15 C
577 09-01-2020 00:00:00 10.92535 C 92.7778 % 9.8 C
578 10-01-2020 00:00:00 8.91667 C 88.2604 % 7.08 C
579 11-01-2020 00:00:00 4.34236 C 88.6354 % 2.64 C
580 12-01-2020 00:00:00 5.14718 C 87.9120 % 3.31 C
581 13-01-2020 00:00:00 6.54201 C 91.7431 % 5.3 C
582 14-01-2020 00:00:00 9.77153 C 77.8924 % 6.11 C
583 15-01-2020 00:00:00 10.89063 C 76.6285 % 6.95 C
584 16-01-2020 00:00:00 7.81181 C 95.4653 % 7.13 C
585 17-01-2020 00:00:00 6.03854 C 93.7014 % 5.1 C
586 18-01-2020 00:00:00 4.44062 C 88.2049 % 2.66 C
587 19-01-2020 00:00:00 3.78507 C 94.1736 % 2.94 C
588 20-01-2020 00:00:00 2.42431 C 91.7396 % 1.22 C
589 21-01-2020 00:00:00 -1.80243 C 96.3750 % -2.3 C
590 22-01-2020 00:00:00 -1.19236 C 97.1354 % -1.59 C
591 23-01-2020 00:00:00 1.30764 C 97.1111 % 0.9 C
592 24-01-2020 00:00:00 1.43415 C 91.4390 % 0.2 C
593 25-01-2020 00:00:00 2.65128 C 94.0366 % 1.79 C
594 26-01-2020 00:00:00 2.81007 C 94.9063 % 2.08 C
595 27-01-2020 00:00:00 6.29028 C 94.0347 % 5.4 C
596 28-01-2020 00:00:00 5.69583 C 86.0521 % 3.55 C
597 29-01-2020 00:00:00 4.80035 C 82.8264 % 2.14 C
598 30-01-2020 00:00:00 7.99861 C 84.7257 % 5.59 C
599 31-01-2020 00:00:00 13.03785 C 84.2014 % 10.44 C
600 01-02-2020 00:00:00 11.64167 C 87.8160 % 9.69 C
Sensor: Nr:Datum:Temp:Feuchte:Taupunkt:
Aussen-T/F 601 02-02-2020 00:00:00 10.18611 C 84.6319 % 7.72 C
602 03-02-2020 00:00:00 10.60417 C 82.2847 % 7.71 C
603 04-02-2020 00:00:00 5.02986 C 89.6736 % 3.48 C
604 05-02-2020 00:00:00 3.76389 C 88.0764 % 1.98 C
605 06-02-2020 00:00:00 0.78437 C 93.4340 % -0.15 C
606 07-02-2020 00:00:00 0.2559 C 95.0521 % -0.44 C
607 08-02-2020 00:00:00 1.77708 C 94.2569 % 0.95 C
608 09-02-2020 00:00:00 8.82708 C 82.6076 % 6.03 C
609 10-02-2020 00:00:00 8.29444 C 82.5104 % 5.5 C
610 11-02-2020 00:00:00 5.77535 C 73.1319 % 1.35 C
611 12-02-2020 00:00:00 4.81875 C 81.1910 % 1.87 C
612 13-02-2020 00:00:00 4.01076 C 92.9375 % 2.97 C
613 14-02-2020 00:00:00 6.17951 C 91.1042 % 4.84 C
614 15-02-2020 00:00:00 6.23438 C 89.5347 % 4.64 C
615 16-02-2020 00:00:00 14.59028 C 64.9583 % 8.08 C
616 17-02-2020 00:00:00 8.54375 C 82.6597 % 5.77 C
617 18-02-2020 00:00:00 7.24965 C 80.2083 % 4.07 C
618 19-02-2020 00:00:00 6.24514 C 77.9688 % 2.7 C
619 20-02-2020 00:00:00 8.16562 C 82.5000 % 5.37 C
620 21-02-2020 00:00:00 5.17604 C 82.3542 % 2.42 C
621 22-02-2020 00:00:00 8.05035 C 78.1007 % 4.47 C
622 23-02-2020 00:00:00 10.5066 C 86.7535 % 8.4 C
623 24-02-2020 00:00:00 8.10972 C 87.2431 % 6.12 C
624 25-02-2020 00:00:00 9.07813 C 81.3194 % 6.05 C
625 26-02-2020 00:00:00 4.86319 C 80.5799 % 1.81 C
Sensor: Nr:Datum:Temp:Feuchte:Taupunkt:
Aussen-T/F 626 27-02-2020 00:00:00 2.97813 C 90.2500 % 1.54 C
627 28-02-2020 00:00:00 3.97257 C 87.1111 % 2.03 C
628 29-02-2020 00:00:00 8.92083 C 83.1944 % 6.23 C
629 01-03-2020 00:00:00 7.55313 C 83.2500 % 4.9 C
630 02-03-2020 00:00:00 6.27882 C 88.9965 % 4.6 C
631 03-03-2020 00:00:00 4.69236 C 88.6910 % 2.99 C
632 04-03-2020 00:00:00 5.49583 C 85.8333 % 3.32 C
633 05-03-2020 00:00:00 6.08229 C 93.0486 % 5.05 C
634 06-03-2020 00:00:00 6.29896 C 90.4271 % 4.85 C
635 07-03-2020 00:00:00 6.57396 C 78.9375 % 3.19 C
636 08-03-2020 00:00:00 9.63993 C 76.9618 % 5.8 C
637 09-03-2020 00:00:00 7.99514 C 81.5208 % 5.03 C
638 10-03-2020 00:00:00 9.51076 C 90.5833 % 8.05 C
639 11-03-2020 00:00:00 14.09028 C 86.0660 % 11.8 C
640 12-03-2020 00:00:00 11.24514 C 72.6007 % 6.51 C
641 13-03-2020 00:00:00 7.37569 C 76.2951 % 3.49 C
642 14-03-2020 00:00:00 6.05799 C 83.2604 % 3.44 C
643 15-03-2020 00:00:00 8.92639 C 74.2326 % 4.6 C
644 16-03-2020 00:00:00 9.3 C 80.2431 % 6.08 C
645 17-03-2020 00:00:00 11.38021 C 79.9722 % 8.05 C
646 18-03-2020 00:00:00 9.96493 C 82.5590 % 7.14 C
647 19-03-2020 00:00:00 12.13646 C 76.1042 % 8.06 C
648 20-03-2020 00:00:00 10.33299 C 84.0660 % 7.76 C
649 21-03-2020 00:00:00 6.16667 C 76.4236 % 2.34 C
650 22-03-2020 00:00:00 4.50243 C 57.8438 % -3.06 C
Sensor: Nr:Datum:Temp:Feuchte:Taupunkt:
Aussen-T/F 651 23-03-2020 00:00:00 2.99688 C 55.3889 % -5.05 C
652 24-03-2020 00:00:00 2.86181 C 56.4375 % -4.93 C
653 25-03-2020 00:00:00 3.75208 C 52.7257 % -4.99 C
654 26-03-2020 00:00:00 5.07118 C 57.3819 % -2.64 C
655 27-03-2020 00:00:00 7.93715 C 66.7500 % 2.15 C
656 28-03-2020 00:00:00 9.59861 C 66.6528 % 3.71 C
657 29-03-2020 00:00:00 5.44891 C 69.6413 % 0.36 C
658 30-03-2020 00:00:00 2.775 C 64.1319 % -3.31 C
659 31-03-2020 00:00:00 5.47118 C 66.1771 % -0.32 C
660 01-04-2020 00:00:00 3.8184 C 62.2569 % -2.72 C
661 02-04-2020 00:00:00 5.06042 C 67.9931 % -0.35 C
662 03-04-2020 00:00:00 8.20382 C 67.0382 % 2.46 C
663 04-04-2020 00:00:00 6.78958 C 68.9722 % 1.51 C
664 05-04-2020 00:00:00 9.49479 C 65.0729 % 3.27 C
665 06-04-2020 00:00:00 12.0434 C 60.3299 % 4.61 C
666 07-04-2020 00:00:00 13.80521 C 67.0417 % 7.8 C
667 08-04-2020 00:00:00 14.48472 C 65.0764 % 8.01 C
668 09-04-2020 00:00:00 15.29167 C 62.6840 % 8.22 C
669 10-04-2020 00:00:00 14.13646 C 66.3542 % 7.96 C
670 11-04-2020 00:00:00 14.06563 C 57.0417 % 5.7 C
671 12-04-2020 00:00:00 15.15174 C 60.2361 % 7.51 C
672 13-04-2020 00:00:00 9.40139 C 69.2118 % 4.05 C
673 14-04-2020 00:00:00 6.11181 C 64.0868 % -0.16 C
674 15-04-2020 00:00:00 8.67361 C 64.9514 % 2.46 C
675 16-04-2020 00:00:00 12.83299 C 63.9514 % 6.19 C
Sensor: Nr:Datum:Temp:Feuchte:Taupunkt:
Aussen-T/F 676 17-04-2020 00:00:00 15.23854 C 69.5278 % 9.71 C
677 18-04-2020 00:00:00 14.52083 C 78.8333 % 10.89 C
678 19-04-2020 00:00:00 13.06597 C 78.2396 % 9.37 C
679 20-04-2020 00:00:00 12.5066 C 50.4653 % 2.51 C
680 21-04-2020 00:00:00 13.59583 C 47.9965 % 2.81 C
681 22-04-2020 00:00:00 14.35 C 50.4549 % 4.2 C
682 23-04-2020 00:00:00 14.16042 C 57.7604 % 5.97 C
683 24-04-2020 00:00:00 13.96285 C 61.8542 % 6.77 C
684 25-04-2020 00:00:00 12.06389 C 62.5347 % 5.14 C
685 26-04-2020 00:00:00 11.44375 C 66.4514 % 5.42 C
686 27-04-2020 00:00:00 12.89201 C 66.5382 % 6.82 C
687 28-04-2020 00:00:00 12.69306 C 86.7639 % 10.55 C
688 29-04-2020 00:00:00 14.31979 C 76.7049 % 10.29 C
689 30-04-2020 00:00:00 12.21632 C 83.3299 % 9.48 C
690 01-05-2020 00:00:00 10.57674 C 86.4444 % 8.41 C
691 02-05-2020 00:00:00 9.93542 C 83.8403 % 7.33 C
692 03-05-2020 00:00:00 10.39028 C 77.2500 % 6.59 C
693 04-05-2020 00:00:00 11.82361 C 83.7986 % 9.18 C
694 05-05-2020 00:00:00 10.30833 C 68.8333 % 4.84 C
695 06-05-2020 00:00:00 10.34687 C 62.9375 % 3.61 C
696 07-05-2020 00:00:00 12.36771 C 67.0278 % 6.43 C
697 08-05-2020 00:00:00 15.11146 C 64.7535 % 8.53 C
698 09-05-2020 00:00:00 15.97396 C 71.7986 % 10.89 C
699 10-05-2020 00:00:00 15.5441 C 87.0729 % 13.4 C
700 11-05-2020 00:00:00 9.41007 C 72.6944 % 4.76 C
Sensor: Nr:Datum:Temp:Feuchte:Taupunkt:
Aussen-T/F 701 12-05-2020 00:00:00 7.67674 C 65.0833 % 1.54 C
702 13-05-2020 00:00:00 8.92604 C 67.5104 % 3.25 C
703 14-05-2020 00:00:00 9.71389 C 66.2535 % 3.73 C
704 15-05-2020 00:00:00 10.43264 C 60.9375 % 3.23 C
705 16-05-2020 00:00:00 11.17396 C 64.1319 % 4.66 C
706 17-05-2020 00:00:00 13.11528 C 63.3750 % 6.33 C
707 18-05-2020 00:00:00 15.67292 C 64.9167 % 9.1 C
708 19-05-2020 00:00:00 16.60729 C 65.8542 % 10.2 C
709 20-05-2020 00:00:00 17.77917 C 71.9375 % 12.65 C
710 21-05-2020 00:00:00 19.01562 C 69.2535 % 13.26 C
711 22-05-2020 00:00:00 19.97639 C 75.2535 % 15.46 C
712 23-05-2020 00:00:00 13.69236 C 87.6181 % 11.68 C
713 24-05-2020 00:00:00 13.58542 C 74.5799 % 9.16 C
714 25-05-2020 00:00:00 15.93854 C 74.9514 % 11.51 C
715 26-05-2020 00:00:00 14.58437 C 71.8056 % 9.56 C
716 27-05-2020 00:00:00 16.48611 C 64.8958 % 9.87 C
717 28-05-2020 00:00:00 17.49132 C 54.2049 % 8.15 C
718 29-05-2020 00:00:00 15.20764 C 57.9097 % 6.98 C
719 30-05-2020 00:00:00 15.6941 C 55.5278 % 6.83 C
720 31-05-2020 00:00:00 15.11597 C 60.7847 % 7.61 C
721 01-06-2020 00:00:00 17.87257 C 60.3785 % 10.1 C
722 02-06-2020 00:00:00 19.76701 C 57.8264 % 11.23 C
723 03-06-2020 00:00:00 19.96667 C 60.3333 % 12.06 C
724 04-06-2020 00:00:00 14.67257 C 91.4792 % 13.3 C
725 05-06-2020 00:00:00 11.51111 C 85.9722 % 9.25 C
Sensor: Nr:Datum:Temp:Feuchte:Taupunkt:
Aussen-T/F 726 06-06-2020 00:00:00 12.4684 C 81.1806 % 9.33 C
727 07-06-2020 00:00:00 13.39861 C 74.3194 % 8.93 C
728 08-06-2020 00:00:00 14.75035 C 72.9375 % 9.95 C
729 09-06-2020 00:00:00 13.99236 C 88.3715 % 12.1 C
730 10-06-2020 00:00:00 15.4 C 85.7326 % 13.02 C
731 11-06-2020 00:00:00 15.74271 C 85.5799 % 13.33 C
732 12-06-2020 00:00:00 19.42083 C 73.5938 % 14.58 C
733 13-06-2020 00:00:00 20.95799 C 70.8958 % 15.48 C
734 14-06-2020 00:00:00 18.87917 C 80.4340 % 15.44 C
735 15-06-2020 00:00:00 18.60291 C 80.5345 % 15.19 C
736 16-06-2020 00:00:00 18.0434 C 88.9236 % 16.19 C
737 17-06-2020 00:00:00 17.45903 C 89.6771 % 15.75 C
738 18-06-2020 00:00:00 18.51528 C 77.4028 % 14.49 C
739 19-06-2020 00:00:00 16.72674 C 84.4549 % 14.09 C
740 20-06-2020 00:00:00 16.94271 C 84.7535 % 14.36 C
741 21-06-2020 00:00:00 19.05278 C 74.7396 % 14.47 C
742 22-06-2020 00:00:00 18.83785 C 72.4236 % 13.77 C
743 23-06-2020 00:00:00 19.59583 C 68.6840 % 13.69 C
744 24-06-2020 00:00:00 21.22153 C 60.2153 % 13.21 C
745 25-06-2020 00:00:00 21.70278 C 67.7535 % 15.48 C
746 26-06-2020 00:00:00 21.67743 C 70.8264 % 16.15 C
747 27-06-2020 00:00:00 22.68785 C 72.4479 % 17.48 C
748 28-06-2020 00:00:00 19.86979 C 72.4236 % 14.77 C
749 29-06-2020 00:00:00 17.69792 C 71.6701 % 12.52 C
750 30-06-2020 00:00:00 16.88194 C 71.2639 % 11.65 C
Sensor: Nr:Datum:Temp:Feuchte:Taupunkt:
Aussen-T/F 751 01-07-2020 00:00:00 21.29896 C 71.3889 % 15.91 C
752 02-07-2020 00:00:00 18.73125 C 81.7639 % 15.55 C
753 03-07-2020 00:00:00 17.73958 C 72.1597 % 12.66 C
754 04-07-2020 00:00:00 19.09826 C 68.4722 % 13.16 C
755 05-07-2020 00:00:00 22.80243 C 71.1076 % 17.29 C
756 06-07-2020 00:00:00 16.79653 C 65.8646 % 10.38 C
757 07-07-2020 00:00:00 16.09792 C 67.7292 % 10.14 C
758 08-07-2020 00:00:00 15.87639 C 86.0139 % 13.54 C
759 09-07-2020 00:00:00 21.61424 C 74.6667 % 16.92 C
760 10-07-2020 00:00:00 18.63368 C 78.6215 % 14.85 C
761 11-07-2020 00:00:00 16.57431 C 67.3646 % 10.51 C
762 12-07-2020 00:00:00 16.85382 C 66.0139 % 10.47 C
763 13-07-2020 00:00:00 19.08542 C 59.6354 % 11.05 C
764 14-07-2020 00:00:00 18.66215 C 67.1389 % 12.45 C
765 15-07-2020 00:00:00 17.55208 C 72.7569 % 12.61 C
766 16-07-2020 00:00:00 16.0875 C 88.8715 % 14.25 C
767 17-07-2020 00:00:00 18.58611 C 80.2222 % 15.11 C
768 18-07-2020 00:00:00 19.51944 C 74.3264 % 14.83 C
769 19-07-2020 00:00:00 22.30451 C 63.0590 % 14.94 C
770 20-07-2020 00:00:00 19.42708 C 71.6215 % 14.17 C
771 21-07-2020 00:00:00 17.64722 C 62.2118 % 10.34 C
772 22-07-2020 00:00:00 17.13264 C 62.9931 % 10.04 C
773 23-07-2020 00:00:00 18.84618 C 60.0208 % 10.93 C
774 24-07-2020 00:00:00 21.21007 C 59.2118 % 12.94 C
775 25-07-2020 00:00:00 21.01562 C 67.9618 % 14.88 C
Sensor: Nr:Datum:Temp:Feuchte:Taupunkt:
Aussen-T/F 776 26-07-2020 00:00:00 20.87674 C 70.5660 % 15.33 C
777 27-07-2020 00:00:00 21.66215 C 63.9306 % 14.54 C
778 28-07-2020 00:00:00 22.91424 C 54.3299 % 13.21 C
779 29-07-2020 00:00:00 18.94583 C 61.6007 % 11.41 C
780 30-07-2020 00:00:00 20.4309 C 59.1424 % 12.19 C
781 31-07-2020 00:00:00 24.16007 C 52.9340 % 13.96 C
782 01-08-2020 00:00:00 21.98437 C 78.4896 % 18.07 C
783 02-08-2020 00:00:00 21.28472 C 73.8993 % 16.44 C
784 03-08-2020 00:00:00 18.1684 C 72.7361 % 13.2 C
785 04-08-2020 00:00:00 19.15486 C 64.7847 % 12.37 C
786 05-08-2020 00:00:00 19.44549 C 61.2292 % 11.79 C
787 06-08-2020 00:00:00 21.8184 C 59.4549 % 13.57 C
788 07-08-2020 00:00:00 23.97535 C 59.4826 % 15.6 C
789 08-08-2020 00:00:00 26.13125 C 58.1875 % 17.27 C
790 09-08-2020 00:00:00 24.35937 C 66.6146 % 17.74 C
791 10-08-2020 00:00:00 25.68472 C 68.1910 % 19.38 C
792 11-08-2020 00:00:00 25.77396 C 68.1285 % 19.45 C
793 12-08-2020 00:00:00 23.65799 C 82.5382 % 20.51 C
794 13-08-2020 00:00:00 23.34201 C 82.8333 % 20.26 C
795 14-08-2020 00:00:00 23.16285 C 77.1215 % 18.93 C
796 15-08-2020 00:00:00 21.83368 C 84.6111 % 19.12 C
797 16-08-2020 00:00:00 22.52535 C 79.9028 % 18.88 C
798 17-08-2020 00:00:00 21.08056 C 81.9514 % 17.88 C
799 18-08-2020 00:00:00 19.08924 C 82.0139 % 15.95 C
800 19-08-2020 00:00:00 19.13125 C 82.7951 % 16.14 C
Sensor: Nr:Datum:Temp:Feuchte:Taupunkt:
Aussen-T/F 801 20-08-2020 00:00:00 23.86042 C 77.6875 % 19.72 C
802 21-08-2020 00:00:00 25.27743 C 71.3264 % 19.71 C
803 22-08-2020 00:00:00 22.45625 C 67.1285 % 16.06 C
804 23-08-2020 00:00:00 19.15764 C 69.8229 % 13.52 C
805 24-08-2020 00:00:00 18.23437 C 71.3472 % 12.97 C
806 25-08-2020 00:00:00 19.07917 C 71.9306 % 13.9 C
807 26-08-2020 00:00:00 20.74132 C 58.6875 % 12.36 C
808 27-08-2020 00:00:00 18.39271 C 69.0382 % 12.62 C
809 28-08-2020 00:00:00 17.86667 C 78.0104 % 13.98 C
810 29-08-2020 00:00:00 16.24479 C 77.3403 % 12.28 C
811 30-08-2020 00:00:00 15.77153 C 80.3125 % 12.39 C
812 31-08-2020 00:00:00 15.63437 C 88.7847 % 13.79 C
813 01-09-2020 00:00:00 15.08889 C 88.1806 % 13.15 C
814 02-09-2020 00:00:00 15.65833 C 79.2083 % 12.07 C
815 03-09-2020 00:00:00 14.23542 C 87.9375 % 12.27 C
816 04-09-2020 00:00:00 20.30278 C 80.3993 % 16.82 C
817 05-09-2020 00:00:00 16.89688 C 78.7049 % 13.18 C
818 06-09-2020 00:00:00 13.28021 C 77.0208 % 9.34 C
819 07-09-2020 00:00:00 14.01493 C 75.7222 % 9.8 C
820 08-09-2020 00:00:00 16.29826 C 73.6458 % 11.59 C
821 09-09-2020 00:00:00 18.26667 C 81.2639 % 15 C
822 10-09-2020 00:00:00 17.81319 C 73.1389 % 12.94 C
823 11-09-2020 00:00:00 15.1066 C 75.7639 % 10.86 C
824 12-09-2020 00:00:00 17.20625 C 75.7535 % 12.89 C
825 13-09-2020 00:00:00 17.20486 C 74.9549 % 12.73 C
Sensor: Nr:Datum:Temp:Feuchte:Taupunkt:
Aussen-T/F 826 14-09-2020 00:00:00 18.81806 C 73.5069 % 13.98 C
827 15-09-2020 00:00:00 20.38194 C 70.7118 % 14.89 C
828 16-09-2020 00:00:00 20.67049 C 74.0139 % 15.87 C
829 17-09-2020 00:00:00 17.93958 C 64.1181 % 11.06 C
830 18-09-2020 00:00:00 15.74687 C 65.9757 % 9.41 C
831 19-09-2020 00:00:00 15.73333 C 62.4097 % 8.58 C
832 20-09-2020 00:00:00 14.83056 C 69.2257 % 9.25 C
833 21-09-2020 00:00:00 14.75174 C 69.8542 % 9.31 C
834 22-09-2020 00:00:00 16.10521 C 69.6840 % 10.57 C
835 23-09-2020 00:00:00 17.57639 C 68.9479 % 11.82 C
836 24-09-2020 00:00:00 16.23021 C 76.9653 % 12.19 C
837 25-09-2020 00:00:00 12.16979 C 82.8542 % 9.35 C
838 26-09-2020 00:00:00 10.52674 C 88.2188 % 8.66 C
839 27-09-2020 00:00:00 11.00694 C 91.8576 % 9.74 C
840 28-09-2020 00:00:00 11.72882 C 87.0243 % 9.64 C
841 29-09-2020 00:00:00 12.13333 C 94.1250 % 11.22 C
842 30-09-2020 00:00:00 14.10799 C 92.7813 % 12.96 C
843 01-10-2020 00:00:00 12.57465 C 93.1042 % 11.49 C
844 02-10-2020 00:00:00 13.41493 C 88.6597 % 11.58 C
845 03-10-2020 00:00:00 13.37049 C 88.4410 % 11.5 C
846 04-10-2020 00:00:00 11.79861 C 86.3889 % 9.6 C
847 05-10-2020 00:00:00 11.07257 C 91.3021 % 9.71 C
848 06-10-2020 00:00:00 13.11389 C 88.5590 % 11.27 C
849 07-10-2020 00:00:00 13.19444 C 82.1181 % 10.21 C
850 08-10-2020 00:00:00 13.25243 C 88.7188 % 11.43 C
Sensor: Nr:Datum:Temp:Feuchte:Taupunkt:
Aussen-T/F 851 09-10-2020 00:00:00 12.99063 C 94.7847 % 12.17 C
852 10-10-2020 00:00:00 9.91979 C 86.5556 % 7.79 C
853 11-10-2020 00:00:00 10.06944 C 83.8299 % 7.46 C
854 12-10-2020 00:00:00 9.40799 C 91.4722 % 8.09 C
855 13-10-2020 00:00:00 7.37361 C 92.5382 % 6.25 C
856 14-10-2020 00:00:00 7.7559 C 89.7222 % 6.18 C
857 15-10-2020 00:00:00 9.09444 C 92.2639 % 7.91 C
858 16-10-2020 00:00:00 9.26007 C 92.3021 % 8.08 C
859 17-10-2020 00:00:00 6.19618 C 93.4236 % 5.22 C
860 18-10-2020 00:00:00 8.18958 C 90.5556 % 6.74 C
861 19-10-2020 00:00:00 8.62604 C 91.6528 % 7.35 C
862 20-10-2020 00:00:00 8.95714 C 93.6516 % 7.99 C
863 21-10-2020 00:00:00 15.08611 C 82.2326 % 12.08 C
864 22-10-2020 00:00:00 16.18681 C 86.0660 % 13.86 C
865 23-10-2020 00:00:00 15.0691 C 92.6979 % 13.9 C
866 24-10-2020 00:00:00 13.40799 C 87.0243 % 11.29 C
867 25-10-2020 00:00:00 13.16458 C 86.2917 % 10.93 C
868 26-10-2020 00:00:00 10.20313 C 88.5799 % 8.4 C
869 27-10-2020 00:00:00 10.44514 C 83.0590 % 7.7 C
870 28-10-2020 00:00:00 12.59861 C 83.4792 % 9.88 C
871 29-10-2020 00:00:00 10.65347 C 91.8785 % 9.39 C
872 30-10-2020 00:00:00 13.81667 C 90.6146 % 12.31 C
873 31-10-2020 00:00:00 13.1434 C 87.1944 % 11.06 C
874 01-11-2020 00:00:00 15.18715 C 91.6944 % 13.85 C
875 02-11-2020 00:00:00 18.53125 C 80.7361 % 15.16 C
Sensor: Nr:Datum:Temp:Feuchte:Taupunkt:
Aussen-T/F 876 03-11-2020 00:00:00 10.3559 C 85.7188 % 8.07 C
877 04-11-2020 00:00:00 4.54444 C 95.1944 % 3.84 C
878 05-11-2020 00:00:00 3.1178 C 96.7966 % 2.66 C
879 06-11-2020 00:00:00 3.23681 C 97.3160 % 2.85 C
880 07-11-2020 00:00:00 4.20285 C 95.8577 % 3.6 C
881 08-11-2020 00:00:00 7.08472 C 94.8160 % 6.31 C
882 09-11-2020 00:00:00 9.85972 C 95.9306 % 9.24 C
883 10-11-2020 00:00:00 7.08333 C 97.0729 % 6.65 C
884 11-11-2020 00:00:00 9.01875 C 94.5069 % 8.19 C
885 12-11-2020 00:00:00 9.26458 C 90.3681 % 7.77 C
886 13-11-2020 00:00:00 6.6191 C 95.8160 % 6 C
887 14-11-2020 00:00:00 10.4625 C 92.9861 % 9.38 C
888 15-11-2020 00:00:00 13.18819 C 86.4896 % 10.99 C
889 16-11-2020 00:00:00 10.81736 C 86.1146 % 8.59 C
890 17-11-2020 00:00:00 11.47778 C 84.8889 % 9.03 C
891 18-11-2020 00:00:00 9.90625 C 89.6111 % 8.28 C
892 19-11-2020 00:00:00 8.99688 C 88.4826 % 7.2 C
893 20-11-2020 00:00:00 4.04167 C 92.6076 % 2.96 C
894 21-11-2020 00:00:00 3.39688 C 89.5938 % 1.85 C
895 22-11-2020 00:00:00 7.66701 C 84.5625 % 5.24 C
896 23-11-2020 00:00:00 7.74201 C 90.7951 % 6.34 C
897 24-11-2020 00:00:00 6.32917 C 91.8472 % 5.1 C
898 25-11-2020 00:00:00 4.53125 C 93.4340 % 3.57 C
899 26-11-2020 00:00:00 3.39653 C 94.7465 % 2.64 C
900 27-11-2020 00:00:00 3.65278 C 93.7847 % 2.75 C
Sensor: Nr:Datum:Temp:Feuchte:Taupunkt:
Aussen-T/F 901 28-11-2020 00:00:00 3.30521 C 92.3438 % 2.19 C
902 29-11-2020 00:00:00 0.89479 C 85.6875 % -1.22 C
903 30-11-2020 00:00:00 -1.56215 C 92.4271 % -2.63 C
904 01-12-2020 00:00:00 2.81111 C 95.7917 % 2.21 C
905 02-12-2020 00:00:00 2.83889 C 95.7743 % 2.23 C
906 03-12-2020 00:00:00 3.59132 C 91.9965 % 2.42 C
907 04-12-2020 00:00:00 4.57361 C 94.0243 % 3.7 C
908 05-12-2020 00:00:00 4.12778 C 95.7500 % 3.51 C
909 06-12-2020 00:00:00 3.92917 C 96.3646 % 3.4 C
910 07-12-2020 00:00:00 4.18854 C 95.0451 % 3.47 C
911 08-12-2020 00:00:00 3.36667 C 92.5208 % 2.27 C
912 09-12-2020 00:00:00 2.17326 C 92.4653 % 1.08 C
913 10-12-2020 00:00:00 0.38125 C 93.3889 % -0.56 C
914 11-12-2020 00:00:00 2.71597 C 90.6250 % 1.34 C
915 12-12-2020 00:00:00 6.01111 C 94.8854 % 5.26 C
916 13-12-2020 00:00:00 5.90799 C 94.8229 % 5.14 C
917 14-12-2020 00:00:00 6.08576 C 90.4028 % 4.64 C
918 15-12-2020 00:00:00 7.82014 C 95.9097 % 7.21 C
919 16-12-2020 00:00:00 7.48125 C 97.1771 % 7.06 C
920 17-12-2020 00:00:00 7.2309 C 95.1285 % 6.5 C
921 18-12-2020 00:00:00 4.31771 C 97.2153 % 3.92 C
922 19-12-2020 00:00:00 6.22292 C 94.9757 % 5.48 C
923 20-12-2020 00:00:00 7.98889 C 94.0486 % 7.09 C
924 21-12-2020 00:00:00 7.12639 C 95.1944 % 6.41 C
925 22-12-2020 00:00:00 13.11875 C 92.6493 % 11.96 C
Sensor: Nr:Datum:Temp:Feuchte:Taupunkt:
Aussen-T/F 926 23-12-2020 00:00:00 11.78889 C 96.6910 % 11.28 C
927 24-12-2020 00:00:00 6.83681 C 90.2014 % 5.35 C
928 25-12-2020 00:00:00 3.34653 C 91.5243 % 2.1 C
929 26-12-2020 00:00:00 2.93368 C 89.6736 % 1.41 C
930 27-12-2020 00:00:00 3.76528 C 88.5799 % 2.06 C
931 28-12-2020 00:00:00 3.67431 C 95.7326 % 3.06 C
932 29-12-2020 00:00:00 2.99375 C 94.1042 % 2.14 C
933 30-12-2020 00:00:00 3.90938 C 91.9132 % 2.72 C
934 31-12-2020 00:00:00 2.97986 C 93.1389 % 1.98 C
935 01-01-2021 00:00:00 2.09757 C 96.4479 % 1.59 C
936 02-01-2021 00:00:00 1.36771 C 96.0625 % 0.81 C
937 03-01-2021 00:00:00 2.60903 C 90.5903 % 1.23 C
938 04-01-2021 00:00:00 1.67326 C 96.3229 % 1.15 C
939 05-01-2021 00:00:00 2.52431 C 95.1007 % 1.82 C
940 06-01-2021 00:00:00 2.73333 C 94.0347 % 1.87 C
941 07-01-2021 00:00:00 2.03368 C 92.1146 % 0.89 C
942 08-01-2021 00:00:00 1.95556 C 95.0903 % 1.25 C
943 09-01-2021 00:00:00 1.34271 C 94.1458 % 0.51 C
944 10-01-2021 00:00:00 0.68472 C 92.7951 % -0.34 C
945 11-01-2021 00:00:00 -0.44062 C 90.1597 % -1.85 C
946 12-01-2021 00:00:00 3.87847 C 91.0313 % 2.55 C
947 13-01-2021 00:00:00 2.46875 C 88.9097 % 0.83 C
948 14-01-2021 00:00:00 2.00556 C 85.9583 % -0.09 C
949 15-01-2021 00:00:00 0.32431 C 86.9410 % -1.59 C
950 16-01-2021 00:00:00 0.42812 C 82.8333 % -2.14 C
Sensor: Nr:Datum:Temp:Feuchte:Taupunkt:
Aussen-T/F 951 17-01-2021 00:00:00 0.51181 C 95.1458 % -0.17 C
952 18-01-2021 00:00:00 3.81701 C 91.5278 % 2.57 C
953 19-01-2021 00:00:00 5.13611 C 84.7049 % 2.78 C
954 20-01-2021 00:00:00 6.33056 C 81.7222 % 3.44 C
955 21-01-2021 00:00:00 8.93368 C 81.0833 % 5.87 C
956 22-01-2021 00:00:00 5.72396 C 91.8160 % 4.5 C
957 23-01-2021 00:00:00 4.06493 C 92.5625 % 2.97 C
958 24-01-2021 00:00:00 2.12708 C 91.6111 % 0.91 C
959 25-01-2021 00:00:00 1.33611 C 93.1111 % 0.35 C
960 26-01-2021 00:00:00 3.28854 C 84.4479 % 0.92 C
961 27-01-2021 00:00:00 2.29201 C 92.8056 % 1.25 C
962 28-01-2021 00:00:00 7.12014 C 93.7431 % 6.18 C
963 29-01-2021 00:00:00 8.84861 C 89.8264 % 7.27 C
964 30-01-2021 00:00:00 4.08715 C 92.8472 % 3.04 C
965 31-01-2021 00:00:00 1.01563 C 91.4201 % -0.22 C
966 01-02-2021 00:00:00 3.89132 C 96.4167 % 3.37 C
967 02-02-2021 00:00:00 7.66319 C 94.6736 % 6.86 C
968 03-02-2021 00:00:00 9.71944 C 94.1632 % 8.83 C
969 04-02-2021 00:00:00 6.63229 C 89.1111 % 4.97 C
970 05-02-2021 00:00:00 6.42708 C 96.0972 % 5.85 C
971 06-02-2021 00:00:00 5.10799 C 96.0243 % 4.53 C
972 07-02-2021 00:00:00 1.10556 C 95.0486 % 0.4 C
973 08-02-2021 00:00:00 -3.50382 C 87.8264 % -5.23 C
974 09-02-2021 00:00:00 -4.71007 C 79.9063 % -7.64 C
975 10-02-2021 00:00:00 -5.63507 C 79.0556 % -8.68 C
Sensor: Nr:Datum:Temp:Feuchte:Taupunkt:
Aussen-T/F 976 11-02-2021 00:00:00 -3.28646 C 83.7778 % -5.63 C
977 12-02-2021 00:00:00 -4.72708 C 79.4896 % -7.72 C
978 13-02-2021 00:00:00 -5.43715 C 78.8542 % -8.52 C
979 14-02-2021 00:00:00 -3.78299 C 79.8403 % -6.75 C
980 15-02-2021 00:00:00 0.83194 C 78.6146 % -2.45 C
981 16-02-2021 00:00:00 5.64757 C 94.2188 % 4.79 C
982 17-02-2021 00:00:00 7.15451 C 90.5764 % 5.72 C
983 18-02-2021 00:00:00 4.16806 C 93.0208 % 3.14 C
984 19-02-2021 00:00:00 6.25486 C 88.6007 % 4.52 C
985 20-02-2021 00:00:00 6.97083 C 87.9028 % 5.11 C
986 21-02-2021 00:00:00 7.73056 C 82.3472 % 4.92 C
987 22-02-2021 00:00:00 6.65069 C 87.7674 % 4.77 C
988 23-02-2021 00:00:00 11.51076 C 82.1528 % 8.58 C
989 24-02-2021 00:00:00 10.01771 C 87.0972 % 7.97 C
990 25-02-2021 00:00:00 9.55417 C 80.9688 % 6.45 C
991 26-02-2021 00:00:00 7.00972 C 87.8889 % 5.14 C
992 27-02-2021 00:00:00 4.3559 C 86.7604 % 2.35 C
993 28-02-2021 00:00:00 5.84236 C 76.1979 % 1.98 C
994 01-03-2021 00:00:00 4.21632 C 83.7431 % 1.72 C
995 02-03-2021 00:00:00 5.65937 C 84.0104 % 3.18 C
996 03-03-2021 00:00:00 6.83889 C 82.6146 % 4.09 C
997 04-03-2021 00:00:00 6.55764 C 89.5729 % 4.97 C
998 05-03-2021 00:00:00 3.77535 C 79.4444 % 0.56 C
999 06-03-2021 00:00:00 0.57465 C 76.1215 % -3.13 C
1000 07-03-2021 00:00:00 0.7691 C 75.6493 % -3.03 C
Sensor: Nr:Datum:Temp:Feuchte:Taupunkt:
Aussen-T/F 1001 08-03-2021 00:00:00 1.04618 C 86.2569 % -0.99 C
1002 09-03-2021 00:00:00 3.11875 C 92.0938 % 1.96 C
1003 10-03-2021 00:00:00 6.84306 C 84.2882 % 4.38 C
1004 11-03-2021 00:00:00 9.20314 C 83.7805 % 6.61 C
1005 12-03-2021 00:00:00 7.43993 C 78.4861 % 3.95 C
1006 13-03-2021 00:00:00 7.28785 C 83.0556 % 4.61 C
1007 14-03-2021 00:00:00 5.28681 C 87.1875 % 3.33 C
1008 15-03-2021 00:00:00 5.93368 C 87.6840 % 4.05 C
1009 16-03-2021 00:00:00 5.88194 C 86.2431 % 3.76 C
1010 17-03-2021 00:00:00 4.87465 C 85.5000 % 2.65 C
1011 18-03-2021 00:00:00 3.22188 C 86.5486 % 1.2 C
1012 19-03-2021 00:00:00 3.84687 C 77.4444 % 0.27 C
1013 20-03-2021 00:00:00 3.32257 C 72.7118 % -1.1 C
1014 21-03-2021 00:00:00 6.1125 C 79.2361 % 2.79 C
1015 22-03-2021 00:00:00 5.83993 C 81.7847 % 2.97 C
1016 23-03-2021 00:00:00 6.76528 C 77.3403 % 3.09 C
1017 24-03-2021 00:00:00 7.14167 C 76.1146 % 3.23 C
1018 25-03-2021 00:00:00 8.49722 C 79.9479 % 5.24 C
1019 26-03-2021 00:00:00 9.88403 C 76.5903 % 5.97 C
1020 27-03-2021 00:00:00 7.20521 C 79.0799 % 3.83 C
1021 28-03-2021 00:00:00 9.55036 C 72.0217 % 4.76 C
1022 29-03-2021 00:00:00 11.67292 C 65.7986 % 5.5 C
1023 30-03-2021 00:00:00 11.68646 C 65.4167 % 5.43 C
1024 31-03-2021 00:00:00 13.42674 C 63.3681 % 6.62 C
1025 01-04-2021 00:00:00 13.89479 C 66.7951 % 7.83 C
Sensor: Nr:Datum:Temp:Feuchte:Taupunkt:
Aussen-T/F 1026 02-04-2021 00:00:00 7.69549 C 72.1215 % 3 C
1027 03-04-2021 00:00:00 8.11632 C 63.5104 % 1.62 C
1028 04-04-2021 00:00:00 5.18472 C 77.6389 % 1.61 C
1029 05-04-2021 00:00:00 3.5066 C 82.5417 % 0.82 C
1030 06-04-2021 00:00:00 3.10833 C 75.8125 % -0.73 C
1031 07-04-2021 00:00:00 2.56146 C 81.1250 % -0.34 C
1032 08-04-2021 00:00:00 5.13542 C 65.3646 % -0.81 C
1033 09-04-2021 00:00:00 7.67569 C 65.7257 % 1.68 C
1034 10-04-2021 00:00:00 9.22222 C 93.9549 % 8.3 C
1035 11-04-2021 00:00:00 6.60278 C 95.1667 % 5.89 C
1036 12-04-2021 00:00:00 4.1684 C 86.5764 % 2.13 C
1037 13-04-2021 00:00:00 3.34167 C 81.8542 % 0.55 C
1038 14-04-2021 00:00:00 3.12951 C 79.2361 % -0.11 C
1039 15-04-2021 00:00:00 3.68819 C 81.6806 % 0.85 C
1040 16-04-2021 00:00:00 5.33542 C 75.1319 % 1.3 C
1041 17-04-2021 00:00:00 7.09653 C 70.4549 % 2.1 C
1042 18-04-2021 00:00:00 8.96424 C 76.7257 % 5.1 C
1043 19-04-2021 00:00:00 10.27361 C 83.0556 % 7.53 C
1044 20-04-2021 00:00:00 9.49931 C 76.9236 % 5.66 C
1045 21-04-2021 00:00:00 10.74375 C 73.0451 % 6.12 C
1046 22-04-2021 00:00:00 8.7816 C 63.1875 % 2.18 C
1047 23-04-2021 00:00:00 8.16632 C 67.6944 % 2.56 C
1048 24-04-2021 00:00:00 9.06042 C 67.1215 % 3.29 C
1049 25-04-2021 00:00:00 8.31076 C 64.7951 % 2.08 C
1050 26-04-2021 00:00:00 8.13646 C 57.5243 % 0.27 C
Sensor: Nr:Datum:Temp:Feuchte:Taupunkt:
Aussen-T/F 1051 27-04-2021 00:00:00 10.01632 C 52.0347 % 0.64 C
1052 28-04-2021 00:00:00 11.48438 C 61.3090 % 4.31 C
1053 29-04-2021 00:00:00 11.84201 C 66.9375 % 5.91 C
1054 30-04-2021 00:00:00 8.08681 C 73.8924 % 3.72 C
1055 01-05-2021 00:00:00 10.12083 C 66.8958 % 4.26 C
1056 02-05-2021 00:00:00 8.56319 C 67.4896 % 2.9 C
1057 03-05-2021 00:00:00 8.08958 C 67.5556 % 2.46 C
1058 04-05-2021 00:00:00 11.0875 C 71.5521 % 6.15 C
1059 05-05-2021 00:00:00 7.64479 C 76.0417 % 3.7 C
1060 06-05-2021 00:00:00 7.87813 C 81.5521 % 4.92 C
1061 07-05-2021 00:00:00 7.66736 C 79.2361 % 4.31 C
1062 08-05-2021 00:00:00 9.96632 C 72.8056 % 5.32 C
1063 09-05-2021 00:00:00 18.04653 C 65.4653 % 11.48 C
1064 10-05-2021 00:00:00 17.83646 C 71.4514 % 12.61 C
1065 11-05-2021 00:00:00 13.64132 C 94.5486 % 12.78 C
1066 12-05-2021 00:00:00 14.16042 C 80.1632 % 10.79 C
1067 13-05-2021 00:00:00 12.7441 C 77.1632 % 8.85 C
1068 14-05-2021 00:00:00 13.14375 C 74.3125 % 8.68 C
1069 15-05-2021 00:00:00 11.39861 C 87.4306 % 9.39 C
1070 16-05-2021 00:00:00 11.40799 C 88.6285 % 9.6 C
1071 17-05-2021 00:00:00 12.12326 C 86.0799 % 9.87 C
1072 18-05-2021 00:00:00 10.75243 C 90.5660 % 9.27 C
1073 19-05-2021 00:00:00 10.85243 C 86.8056 % 8.74 C
1074 20-05-2021 00:00:00 12.43264 C 81.2396 % 9.31 C
1075 21-05-2021 00:00:00 14.13958 C 68.3924 % 8.41 C
Sensor: Nr:Datum:Temp:Feuchte:Taupunkt:
Aussen-T/F 1076 22-05-2021 00:00:00 11.75903 C 79.0417 % 8.25 C
1077 23-05-2021 00:00:00 11.90069 C 75.8056 % 7.77 C
1078 24-05-2021 00:00:00 11.46944 C 82.2743 % 8.56 C
1079 25-05-2021 00:00:00 10.36424 C 84.9965 % 7.95 C
1080 26-05-2021 00:00:00 10.95312 C 88.9583 % 9.21 C
1081 27-05-2021 00:00:00 11.44896 C 87.3194 % 9.42 C
1082 28-05-2021 00:00:00 13.48993 C 76.9167 % 9.53 C
1083 29-05-2021 00:00:00 13.71181 C 71.4896 % 8.66 C
1084 30-05-2021 00:00:00 14.68611 C 67.2083 % 8.68 C
1085 31-05-2021 00:00:00 16.09722 C 65.9097 % 9.73 C
1086 01-06-2021 00:00:00 16.74132 C 64.1146 % 9.93 C
1087 02-06-2021 00:00:00 18.31146 C 64.4792 % 11.5 C
1088 03-06-2021 00:00:00 19.31597 C 84.7014 % 16.68 C
1089 04-06-2021 00:00:00 19.49097 C 90.7465 % 17.94 C
1090 05-06-2021 00:00:00 17.62465 C 91.3681 % 16.2 C
1091 06-06-2021 00:00:00 15.63021 C 91.0139 % 14.17 C
1092 07-06-2021 00:00:00 17.37188 C 89.3333 % 15.6 C
1093 08-06-2021 00:00:00 18.99167 C 81.9167 % 15.83 C
1094 09-06-2021 00:00:00 19.75347 C 76.8125 % 15.57 C
1095 10-06-2021 00:00:00 20.5309 C 70.9965 % 15.09 C
1096 11-06-2021 00:00:00 20.7809 C 73.3542 % 15.84 C

Maximal/Minimal-Werte vom 12.06.2018 - 11.06.2021

Sensor Min Max Avg
Temp
(Aussen-T/F)
-9.6 °C
14-02-2021  07:20:00
40.4 °C
25-07-2019  16:20:00
11.38 °C
Feuchte
(Aussen-T/F)
18 %
03-07-2018  17:25:00
99 %
21-10-2019  10:45:00
80.77 %
Taupunkt
(Aussen-T/F)
-8.68 C
10-02-2021  00:00:00
20.51 C
12-08-2020  00:00:00
7.98 C

Die Daten stammen von einer Davis Vantage Pro 2 Wetter-Station und werden unter Linux mit der Software wview2wettercgi und aufbereitet. Alle Angaben erfolgen ohne Gewähr für ihre Vollständigkeit oder Richtigkeit.
Kontakt: Rainer Krienke krienke@uni-koblenz.de . Meine Webseiten an der Uni Koblenz oder privat.
Version: $Revision: 0.78 $